createdAt,value
2018-09-06T00:01:34.909Z,87.40
2018-09-06T00:04:03.030Z,87.40
2018-09-06T00:06:31.149Z,87.20
2018-09-06T00:08:59.284Z,87.40
2018-09-06T00:11:27.400Z,87.60
2018-09-06T00:13:55.524Z,87.70
2018-09-06T00:16:23.650Z,87.90
2018-09-06T00:18:52.705Z,88.00
2018-09-06T00:21:20.824Z,88.10
2018-09-06T00:23:48.948Z,88.30
2018-09-06T00:26:17.064Z,88.30
2018-09-06T00:28:45.196Z,88.40
2018-09-06T00:31:13.315Z,88.40
2018-09-06T00:33:41.476Z,88.50
2018-09-06T00:36:09.604Z,88.70
2018-09-06T00:38:37.740Z,88.80
2018-09-06T00:41:05.864Z,88.80
2018-09-06T00:43:33.988Z,88.70
2018-09-06T00:46:02.109Z,88.60
2018-09-06T00:48:30.236Z,88.50
2018-09-06T00:50:58.355Z,88.60
2018-09-06T00:53:26.475Z,88.70
2018-09-06T00:55:54.596Z,88.50
2018-09-06T00:58:22.709Z,88.40
2018-09-06T01:00:50.844Z,88.40
2018-09-06T01:03:18.969Z,88.20
2018-09-06T01:05:47.065Z,88.20
2018-09-06T01:08:15.187Z,88.20
2018-09-06T01:10:43.303Z,88.70
2018-09-06T01:13:11.447Z,89.20
2018-09-06T01:15:39.588Z,89.00
2018-09-06T01:18:07.728Z,89.30
2018-09-06T01:20:35.861Z,89.20
2018-09-06T01:23:04.004Z,88.80
2018-09-06T01:25:37.569Z,88.60
2018-09-06T01:28:05.720Z,88.40
2018-09-06T01:30:33.831Z,88.40
2018-09-06T01:33:01.999Z,88.80
2018-09-06T01:35:30.111Z,89.00
2018-09-06T01:37:58.254Z,89.60
2018-09-06T01:40:26.364Z,90.20
2018-09-06T01:42:54.490Z,90.60
2018-09-06T01:45:22.607Z,91.00
2018-09-06T01:47:50.735Z,91.50
2018-09-06T01:50:18.869Z,91.80
2018-09-06T01:52:46.984Z,91.30
2018-09-06T01:55:15.137Z,91.40
2018-09-06T01:57:43.256Z,92.30
2018-09-06T02:00:11.400Z,92.80
2018-09-06T02:02:39.510Z,92.30
2018-09-06T02:05:07.637Z,91.70
2018-09-06T02:07:35.741Z,91.20
2018-09-06T02:10:03.875Z,91.40
2018-09-06T02:12:31.981Z,91.30
2018-09-06T02:15:00.093Z,91.50
2018-09-06T02:17:28.197Z,91.90
2018-09-06T02:19:56.335Z,92.50
2018-09-06T02:22:24.479Z,92.70
2018-09-06T02:24:52.597Z,93.20
2018-09-06T02:27:20.878Z,93.30
2018-09-06T02:29:48.973Z,93.40
2018-09-06T02:32:17.091Z,93.40
2018-09-06T02:34:45.209Z,93.30
2018-09-06T02:37:13.332Z,93.30
2018-09-06T02:39:41.458Z,93.30
2018-09-06T02:42:09.580Z,93.20
2018-09-06T02:44:37.719Z,93.50
2018-09-06T02:47:05.842Z,93.80
2018-09-06T02:49:39.367Z,93.30
2018-09-06T02:52:07.484Z,93.40
2018-09-06T02:54:35.623Z,93.40
2018-09-06T02:57:03.740Z,93.40
2018-09-06T02:59:31.849Z,93.70
2018-09-06T03:01:59.956Z,94.00
2018-09-06T03:07:02.538Z,94.60
2018-09-06T03:09:30.640Z,94.70
2018-09-06T03:12:01.389Z,95.10
2018-09-06T03:14:29.455Z,94.90
2018-09-06T03:16:57.543Z,94.70
2018-09-06T03:19:25.681Z,94.70
2018-09-06T03:21:53.909Z,94.80
2018-09-06T03:24:22.004Z,94.80
2018-09-06T03:26:50.100Z,95.20
2018-09-06T03:29:18.216Z,95.20
2018-09-06T03:31:46.323Z,94.60
2018-09-06T03:34:14.406Z,94.70
2018-09-06T03:36:42.511Z,94.70
2018-09-06T03:39:10.816Z,94.90
2018-09-06T03:41:39.212Z,95.20
2018-09-06T03:44:07.330Z,95.20
2018-09-06T03:46:35.416Z,95.70
2018-09-06T03:49:03.504Z,95.70
2018-09-06T03:51:31.594Z,95.90
2018-09-06T03:53:59.689Z,95.90
2018-09-06T03:56:27.781Z,96.70
2018-09-06T03:58:55.866Z,96.30
2018-09-06T04:01:24.002Z,96.90
2018-09-06T04:03:52.109Z,97.40
2018-09-06T04:06:20.229Z,97.70
2018-09-06T04:08:48.343Z,97.50
2018-09-06T04:11:16.468Z,96.00
2018-09-06T04:13:44.589Z,96.10
2018-09-06T04:16:12.727Z,97.10
2018-09-06T04:18:40.840Z,97.00
2018-09-06T04:21:09.330Z,97.50
2018-09-06T04:23:37.447Z,98.10
2018-09-06T04:26:05.828Z,98.70
2018-09-06T04:28:33.933Z,98.30
2018-09-06T04:31:02.047Z,98.00
2018-09-06T04:33:30.174Z,98.10
2018-09-06T04:35:58.304Z,99.00
2018-09-06T04:38:26.420Z,98.20
2018-09-06T04:40:54.542Z,97.60
2018-09-06T04:43:22.645Z,97.90
2018-09-06T04:45:50.776Z,98.30
2018-09-06T04:48:18.897Z,98.10
2018-09-06T04:51:50.415Z,98.70
2018-09-06T04:54:18.538Z,98.90
2018-09-06T04:56:46.654Z,98.90
2018-09-06T04:59:14.775Z,99.10
2018-09-06T05:01:42.903Z,99.10
2018-09-06T05:04:11.136Z,98.20
2018-09-06T05:06:39.201Z,97.90
2018-09-06T05:09:08.629Z,98.20
2018-09-06T05:11:37.139Z,98.00
2018-09-06T05:14:05.260Z,98.20
2018-09-06T05:16:33.405Z,98.20
2018-09-06T05:19:01.536Z,98.30
2018-09-06T05:21:29.675Z,98.10
2018-09-06T05:23:57.800Z,98.40
2018-09-06T05:26:25.940Z,98.00
2018-09-06T05:28:54.166Z,98.10
2018-09-06T05:31:22.311Z,98.00
2018-09-06T05:33:50.856Z,98.10
2018-09-06T05:36:20.243Z,97.70
2018-09-06T05:38:48.347Z,97.20
2018-09-06T05:41:16.479Z,97.20
2018-09-06T05:43:44.592Z,97.00
2018-09-06T05:46:12.739Z,96.70
2018-09-06T05:48:41.967Z,97.80
2018-09-06T05:51:10.083Z,97.30
2018-09-06T05:53:38.221Z,98.30
2018-09-06T05:56:06.326Z,97.50
2018-09-06T05:58:34.456Z,97.00
2018-09-06T06:01:02.576Z,96.70
2018-09-06T06:03:30.656Z,96.80
2018-09-06T06:05:58.754Z,97.60
2018-09-06T06:08:37.744Z,98.00
2018-09-06T06:11:05.876Z,97.50
2018-09-06T06:13:33.960Z,96.80
2018-09-06T06:16:02.071Z,97.20
2018-09-06T06:18:30.173Z,97.40
2018-09-06T06:20:58.273Z,97.40
2018-09-06T06:23:26.361Z,98.10
2018-09-06T06:25:54.490Z,97.80
2018-09-06T06:28:22.580Z,98.00
2018-09-06T06:30:50.683Z,98.00
2018-09-06T06:33:18.804Z,98.50
2018-09-06T06:35:46.916Z,98.30
2018-09-06T06:38:14.995Z,98.50
2018-09-06T06:40:43.127Z,97.80
2018-09-06T06:43:11.233Z,97.80
2018-09-06T06:45:39.348Z,98.50
2018-09-06T06:48:07.458Z,98.80
2018-09-06T06:50:35.548Z,99.20
2018-09-06T06:53:03.645Z,99.00
2018-09-06T06:55:31.732Z,98.20
2018-09-06T06:57:59.831Z,98.20
2018-09-06T07:00:27.936Z,98.30
2018-09-06T07:02:56.025Z,97.90
2018-09-06T07:05:24.129Z,97.90
2018-09-06T07:07:52.236Z,98.80
2018-09-06T07:10:20.327Z,98.50
2018-09-06T07:12:48.419Z,98.80
2018-09-06T07:15:16.502Z,98.60
2018-09-06T07:17:44.603Z,99.30
2018-09-06T07:20:12.703Z,99.20
2018-09-06T07:22:40.793Z,99.00
2018-09-06T07:25:08.867Z,99.00
2018-09-06T07:27:36.955Z,99.20
2018-09-06T07:30:05.596Z,98.70
2018-09-06T07:32:33.700Z,99.40
2018-09-06T07:35:01.799Z,99.70
2018-09-06T07:37:30.040Z,99.90
2018-09-06T07:39:58.128Z,99.90
2018-09-06T07:42:26.227Z,99.90
2018-09-06T07:44:54.315Z,99.90
2018-09-06T07:47:22.429Z,99.90
2018-09-06T07:49:50.529Z,99.90
2018-09-06T07:52:18.631Z,99.90
2018-09-06T07:54:46.733Z,99.90
2018-09-06T07:57:14.828Z,99.80
2018-09-06T07:59:42.956Z,99.90
2018-09-06T08:02:11.079Z,99.90
2018-09-06T08:04:39.195Z,99.90
2018-09-06T08:07:07.310Z,99.90
2018-09-06T08:09:35.431Z,99.90
2018-09-06T08:12:03.606Z,99.90
2018-09-06T08:14:31.663Z,99.90
2018-09-06T08:16:59.796Z,99.70
2018-09-06T08:19:27.922Z,99.90
2018-09-06T08:21:56.035Z,99.50
2018-09-06T08:24:24.252Z,99.60
2018-09-06T08:26:52.323Z,99.90
2018-09-06T08:29:20.500Z,99.90
2018-09-06T08:31:48.791Z,99.90
2018-09-06T08:34:16.908Z,99.90
2018-09-06T08:36:45.049Z,99.80
2018-09-06T08:39:13.948Z,99.90
2018-09-06T08:41:42.083Z,99.40
2018-09-06T08:44:10.200Z,99.90
2018-09-06T08:46:38.327Z,99.90
2018-09-06T08:49:06.465Z,99.90
2018-09-06T08:51:34.615Z,99.90
2018-09-06T08:54:02.983Z,99.90
2018-09-06T08:56:31.117Z,99.90
2018-09-06T08:58:59.232Z,99.50
2018-09-06T09:01:32.596Z,99.90
2018-09-06T09:04:00.719Z,99.90
2018-09-06T09:06:28.835Z,99.90
2018-09-06T09:08:56.977Z,99.90
2018-09-06T09:11:25.086Z,99.90
2018-09-06T09:13:53.223Z,99.90
2018-09-06T09:16:21.333Z,99.80
2018-09-06T09:18:49.476Z,99.30
2018-09-06T09:21:17.597Z,99.60
2018-09-06T09:23:45.758Z,99.70
2018-09-06T09:26:13.853Z,99.30
2018-09-06T09:28:41.975Z,99.60
2018-09-06T09:31:10.099Z,99.90
2018-09-06T09:33:38.228Z,99.70
2018-09-06T09:36:06.558Z,99.90
2018-09-06T09:38:34.722Z,99.90
2018-09-06T09:41:02.827Z,99.80
2018-09-06T09:43:30.954Z,99.40
2018-09-06T09:48:26.471Z,99.60
2018-09-06T09:50:54.592Z,98.70
2018-09-06T09:53:22.743Z,99.80
2018-09-06T09:55:50.850Z,99.30
2018-09-06T09:58:18.964Z,98.10
2018-09-06T10:00:47.050Z,98.50
2018-09-06T10:03:20.786Z,99.90
2018-09-06T10:05:50.964Z,99.30
2018-09-06T10:08:24.651Z,99.90
2018-09-06T10:10:52.768Z,96.00
2018-09-06T10:13:20.872Z,96.00
2018-09-06T10:15:49.433Z,96.60
2018-09-06T10:18:17.608Z,95.90
2018-09-06T10:20:45.608Z,95.70
2018-09-06T10:23:13.718Z,97.40
2018-09-06T10:25:41.808Z,95.80
2018-09-06T10:28:09.904Z,96.40
2018-09-06T10:30:38.007Z,95.70
2018-09-06T10:33:06.149Z,95.10
2018-09-06T10:35:34.255Z,94.60
2018-09-06T10:38:02.364Z,94.50
2018-09-06T10:40:30.480Z,94.90
2018-09-06T10:42:58.557Z,94.70
2018-09-06T10:45:26.659Z,94.80
2018-09-06T10:47:54.807Z,92.30
2018-09-06T10:50:22.853Z,93.20
2018-09-06T10:52:50.944Z,93.50
2018-09-06T10:55:19.045Z,94.60
2018-09-06T10:57:47.144Z,94.00
2018-09-06T11:00:15.283Z,92.80
2018-09-06T11:02:43.407Z,94.00
2018-09-06T11:05:11.539Z,93.80
2018-09-06T11:07:39.656Z,93.20
2018-09-06T11:10:07.780Z,93.30
2018-09-06T11:12:35.900Z,94.70
2018-09-06T11:15:04.476Z,93.10
2018-09-06T11:17:32.526Z,91.90
2018-09-06T11:20:00.651Z,92.00
2018-09-06T11:22:28.993Z,92.00
2018-09-06T11:24:56.874Z,92.40
2018-09-06T11:27:25.033Z,93.30
2018-09-06T11:29:53.108Z,92.00
2018-09-06T11:32:21.230Z,91.90
2018-09-06T11:34:49.445Z,92.50
2018-09-06T11:37:17.557Z,92.10
2018-09-06T11:39:45.692Z,93.00
2018-09-06T11:42:13.811Z,90.60
2018-09-06T11:44:41.939Z,91.90
2018-09-06T11:47:10.098Z,91.50
2018-09-06T11:52:12.700Z,92.30
2018-09-06T11:54:40.807Z,91.30
2018-09-06T11:57:08.916Z,90.10
2018-09-06T11:59:37.012Z,89.80
2018-09-06T12:02:05.374Z,89.70
2018-09-06T12:04:33.447Z,90.70
2018-09-06T12:07:01.548Z,90.00
2018-09-06T12:09:29.636Z,89.40
2018-09-06T12:11:57.722Z,89.60
2018-09-06T12:14:25.819Z,90.10
2018-09-06T12:16:53.889Z,90.00
2018-09-06T12:19:22.061Z,90.40
2018-09-06T12:21:50.083Z,90.70
2018-09-06T12:24:18.172Z,90.80
2018-09-06T12:26:46.267Z,90.00
2018-09-06T12:29:14.349Z,89.60
2018-09-06T12:31:42.449Z,88.40
2018-09-06T12:34:10.540Z,88.80
2018-09-06T12:36:38.636Z,88.70
2018-09-06T12:39:07.750Z,89.70
2018-09-06T12:41:35.854Z,89.80
2018-09-06T12:44:03.959Z,89.50
2018-09-06T12:46:32.064Z,89.60
2018-09-06T12:49:00.184Z,91.10
2018-09-06T12:51:28.293Z,90.30
2018-09-06T12:53:56.386Z,89.60
2018-09-06T12:56:24.495Z,90.20
2018-09-06T12:58:52.589Z,90.70
2018-09-06T13:01:20.702Z,91.00
2018-09-06T13:03:48.802Z,91.50
2018-09-06T13:06:16.889Z,91.80
2018-09-06T13:08:44.982Z,92.20
2018-09-06T13:11:13.086Z,91.60
2018-09-06T13:13:41.170Z,91.60
2018-09-06T13:16:09.277Z,92.70
2018-09-06T13:18:37.425Z,92.70
2018-09-06T13:21:05.902Z,92.50
2018-09-06T13:23:34.016Z,92.20
2018-09-06T13:26:02.111Z,92.20
2018-09-06T13:28:30.704Z,93.10
2018-09-06T13:30:58.825Z,93.00
2018-09-06T13:33:26.912Z,92.50
2018-09-06T13:35:55.011Z,92.20
2018-09-06T13:38:23.105Z,92.10
2018-09-06T13:40:51.217Z,91.60
2018-09-06T13:43:19.755Z,91.50
2018-09-06T13:45:47.812Z,91.20
2018-09-06T13:48:16.308Z,91.80
2018-09-06T13:50:44.390Z,91.50
2018-09-06T13:53:12.469Z,91.60
2018-09-06T13:55:40.579Z,91.10
2018-09-06T13:58:08.665Z,90.80
2018-09-06T14:00:37.031Z,91.60
2018-09-06T14:03:05.274Z,91.20
2018-09-06T14:05:33.400Z,90.60
2018-09-06T14:08:01.516Z,90.50
2018-09-06T14:10:29.656Z,91.00
2018-09-06T14:12:57.758Z,90.00
2018-09-06T14:15:25.906Z,91.10
2018-09-06T14:17:53.987Z,91.30
2018-09-06T14:20:22.119Z,90.60
2018-09-06T14:22:50.243Z,90.60
2018-09-06T14:25:18.369Z,91.50
2018-09-06T14:27:46.491Z,91.10
2018-09-06T14:30:14.618Z,92.10
2018-09-06T14:32:42.721Z,91.10
2018-09-06T14:35:10.851Z,91.30
2018-09-06T14:37:38.969Z,91.10
2018-09-06T14:40:07.124Z,91.20
2018-09-06T14:42:35.334Z,90.60
2018-09-06T14:45:03.484Z,90.00
2018-09-06T14:47:31.599Z,90.10
2018-09-06T14:49:59.744Z,89.90
2018-09-06T14:52:27.845Z,89.30
2018-09-06T14:54:55.987Z,90.70
2018-09-06T14:57:24.176Z,89.50
2018-09-06T14:59:52.275Z,89.10
2018-09-06T15:02:20.407Z,88.30
2018-09-06T15:04:48.525Z,87.60
2018-09-06T15:07:16.648Z,88.60
2018-09-06T15:09:44.772Z,87.90
2018-09-06T15:12:12.933Z,87.60
2018-09-06T15:14:41.055Z,87.60
2018-09-06T15:17:09.196Z,88.40
2018-09-06T15:19:37.308Z,87.80
2018-09-06T15:22:05.626Z,88.60
2018-09-06T15:24:33.725Z,87.00
2018-09-06T15:27:01.863Z,87.40
2018-09-06T15:29:29.974Z,87.90
2018-09-06T15:31:58.101Z,87.80
2018-09-06T15:34:26.401Z,88.10
2018-09-06T15:36:54.531Z,88.70
2018-09-06T15:39:22.659Z,89.20
2018-09-06T15:41:50.773Z,89.60
2018-09-06T15:44:18.912Z,89.30
2018-09-06T15:46:47.024Z,89.40
2018-09-06T15:49:15.132Z,89.20
2018-09-06T15:51:43.255Z,89.30
2018-09-06T15:54:11.379Z,88.60
2018-09-06T15:56:39.515Z,88.80
2018-09-06T15:59:07.765Z,88.80
2018-09-06T16:01:35.900Z,89.30
2018-09-06T16:04:04.024Z,89.00
2018-09-06T16:06:32.145Z,88.90
2018-09-06T16:09:00.268Z,88.50
2018-09-06T16:11:28.400Z,87.50
2018-09-06T16:13:56.544Z,86.90
2018-09-06T16:16:24.646Z,87.60
2018-09-06T16:18:52.761Z,86.50
2018-09-06T16:21:20.899Z,87.40
2018-09-06T16:23:49.017Z,87.40
2018-09-06T16:26:17.140Z,87.70
2018-09-06T16:28:45.263Z,88.50
2018-09-06T16:31:13.392Z,88.90
2018-09-06T16:33:41.505Z,89.10
2018-09-06T16:36:09.643Z,88.90
2018-09-06T16:38:37.759Z,89.00
2018-09-06T16:41:05.867Z,88.30
2018-09-06T16:43:34.411Z,88.30
2018-09-06T16:46:02.541Z,88.80
2018-09-06T16:48:30.654Z,89.00
2018-09-06T16:50:58.776Z,88.60
2018-09-06T16:53:26.920Z,88.70
2018-09-06T16:55:55.055Z,89.20
2018-09-06T16:58:23.190Z,89.10
2018-09-06T17:00:51.384Z,89.00
2018-09-06T17:03:19.459Z,89.80
2018-09-06T17:05:47.609Z,89.80
2018-09-06T17:08:15.749Z,89.70
2018-09-06T17:10:43.859Z,89.70
2018-09-06T17:13:11.999Z,89.80
2018-09-06T17:15:40.126Z,89.90
2018-09-06T17:18:08.241Z,89.50
2018-09-06T17:20:36.352Z,89.60
2018-09-06T17:23:04.464Z,89.50
2018-09-06T17:25:32.637Z,89.80
2018-09-06T17:28:00.797Z,89.80
2018-09-06T17:30:28.923Z,89.90
2018-09-06T17:32:57.075Z,90.40
2018-09-06T17:35:25.163Z,90.50
2018-09-06T17:37:53.316Z,90.80
2018-09-06T17:40:21.418Z,90.20
2018-09-06T17:42:49.546Z,90.80
2018-09-06T17:45:17.672Z,90.60
2018-09-06T17:47:45.845Z,91.10
2018-09-06T17:50:13.928Z,91.60
2018-09-06T17:52:42.073Z,91.40
2018-09-06T17:55:10.162Z,91.60
2018-09-06T17:57:38.348Z,91.70
2018-09-06T18:00:06.780Z,91.70
2018-09-06T18:02:35.028Z,91.80
2018-09-06T18:05:03.337Z,91.50
2018-09-06T18:07:31.448Z,91.70
2018-09-06T18:09:59.526Z,91.30
2018-09-06T18:12:27.716Z,91.50
2018-09-06T18:14:55.821Z,91.60
2018-09-06T18:17:23.940Z,91.50
2018-09-06T18:19:52.051Z,91.40
2018-09-06T18:22:20.349Z,92.00
2018-09-06T18:24:48.445Z,91.80
2018-09-06T18:27:16.865Z,91.60
2018-09-06T18:29:44.953Z,91.90
2018-09-06T18:32:13.084Z,92.50
2018-09-06T18:34:41.531Z,92.50
2018-09-06T18:37:09.998Z,92.80
2018-09-06T18:39:38.135Z,92.40
2018-09-06T18:42:06.213Z,92.00
2018-09-06T18:44:34.328Z,91.90
2018-09-06T18:47:02.726Z,91.70
2018-09-06T18:49:31.417Z,91.80
2018-09-06T18:51:59.921Z,91.60
2018-09-06T18:54:28.078Z,91.90
2018-09-06T18:56:57.287Z,91.90
2018-09-06T18:59:25.484Z,92.00
2018-09-06T19:01:53.696Z,91.60
2018-09-06T19:04:21.873Z,91.90
2018-09-06T19:06:50.362Z,91.60
2018-09-06T19:09:18.796Z,91.60
2018-09-06T19:11:46.907Z,91.00
2018-09-06T19:14:15.103Z,91.40
2018-09-06T19:16:43.199Z,91.40
2018-09-06T19:19:11.361Z,91.10
2018-09-06T19:21:39.854Z,90.90
2018-09-06T19:24:08.261Z,91.10
2018-09-06T19:26:36.338Z,90.90
2018-09-06T19:29:04.553Z,90.60
2018-09-06T19:31:32.750Z,90.80
2018-09-06T19:34:00.912Z,91.20
2018-09-06T19:36:29.042Z,90.90
2018-09-06T19:38:57.205Z,91.20
2018-09-06T19:41:25.351Z,91.00
2018-09-06T19:43:53.821Z,91.00
2018-09-06T19:46:22.340Z,91.10
2018-09-06T19:48:51.508Z,91.30
2018-09-06T19:51:19.843Z,91.60
2018-09-06T19:53:48.088Z,91.90
2018-09-06T19:56:16.500Z,92.20
2018-09-06T19:58:44.627Z,92.30
2018-09-06T20:01:12.829Z,92.10
2018-09-06T20:03:40.987Z,92.00
2018-09-06T20:06:09.119Z,92.00
2018-09-06T20:08:37.224Z,92.10
2018-09-06T20:11:05.509Z,92.20
2018-09-06T20:13:33.655Z,92.20
2018-09-06T20:16:01.784Z,92.40
2018-09-06T20:18:29.920Z,92.90
2018-09-06T20:20:58.276Z,92.90
2018-09-06T20:23:26.405Z,93.50
2018-09-06T20:25:54.739Z,93.30
2018-09-06T20:28:22.863Z,93.10
2018-09-06T20:30:51.064Z,93.50
2018-09-06T20:33:19.194Z,93.60
2018-09-06T20:35:47.327Z,93.90
2018-09-06T20:38:15.516Z,93.70
2018-09-06T20:40:43.632Z,94.00
2018-09-06T20:43:11.781Z,94.30
2018-09-06T20:45:39.931Z,94.20
2018-09-06T20:48:08.319Z,94.20
2018-09-06T20:50:37.047Z,94.10
2018-09-06T20:53:05.377Z,94.50
2018-09-06T20:55:33.475Z,94.50
2018-09-06T20:58:01.634Z,94.50
2018-09-06T21:00:30.002Z,94.40
2018-09-06T21:02:58.114Z,94.50
2018-09-06T21:05:26.421Z,94.20
2018-09-06T21:07:54.529Z,94.20
2018-09-06T21:10:22.725Z,94.30
2018-09-06T21:12:50.828Z,94.50
2018-09-06T21:15:18.921Z,94.60
2018-09-06T21:17:47.065Z,95.20
2018-09-06T21:20:15.179Z,95.30
2018-09-06T21:22:43.273Z,95.50
2018-09-06T21:25:11.404Z,96.10
2018-09-06T21:27:39.535Z,96.40
2018-09-06T21:30:07.717Z,96.60
2018-09-06T21:32:35.713Z,96.20
2018-09-06T21:35:03.884Z,96.40
2018-09-06T21:37:32.671Z,96.00
2018-09-06T21:40:00.827Z,95.60
2018-09-06T21:42:28.842Z,95.50
2018-09-06T21:44:56.963Z,95.50
2018-09-06T21:47:25.087Z,95.50
2018-09-06T21:49:53.189Z,95.80
2018-09-06T21:52:21.295Z,95.80
2018-09-06T21:54:49.447Z,96.10
2018-09-06T21:57:17.583Z,96.00
2018-09-06T21:59:45.708Z,95.90
2018-09-06T22:02:19.431Z,96.40
2018-09-06T22:04:50.632Z,96.70
2018-09-06T22:07:18.756Z,96.60
2018-09-06T22:09:46.879Z,96.60
2018-09-06T22:12:17.440Z,96.00
2018-09-06T22:14:46.846Z,96.40
2018-09-06T22:17:15.152Z,96.20
2018-09-06T22:19:43.425Z,96.40
2018-09-06T22:22:11.559Z,96.60
2018-09-06T22:24:39.890Z,96.80
2018-09-06T22:27:08.203Z,97.20
2018-09-06T22:29:36.323Z,97.30
2018-09-06T22:32:04.683Z,97.50
2018-09-06T22:34:32.800Z,97.30
2018-09-06T22:37:00.959Z,97.80
2018-09-06T22:39:29.236Z,97.50
2018-09-06T22:41:57.382Z,97.50
2018-09-06T22:44:25.504Z,98.20
2018-09-06T22:46:53.645Z,98.10
2018-09-06T22:49:21.759Z,98.00
2018-09-06T22:51:49.900Z,97.70
2018-09-06T22:54:18.019Z,97.30
2018-09-06T22:56:46.511Z,97.70
2018-09-06T22:59:14.618Z,97.30
2018-09-06T23:01:42.734Z,97.30
2018-09-06T23:04:10.827Z,97.00
2018-09-06T23:06:38.932Z,96.60
2018-09-06T23:09:07.580Z,96.70
2018-09-06T23:11:35.783Z,96.90
2018-09-06T23:14:03.866Z,96.80
2018-09-06T23:16:32.043Z,97.00
2018-09-06T23:19:00.136Z,97.50
2018-09-06T23:21:28.233Z,97.20
2018-09-06T23:23:56.321Z,97.30
2018-09-06T23:26:25.339Z,97.20
2018-09-06T23:28:53.455Z,97.20
2018-09-06T23:31:21.549Z,96.60
2018-09-06T23:33:49.652Z,96.60
2018-09-06T23:36:17.765Z,95.30
2018-09-06T23:38:45.863Z,95.90
2018-09-06T23:41:13.980Z,96.60
2018-09-06T23:43:42.091Z,97.10
2018-09-06T23:46:10.187Z,97.50
2018-09-06T23:48:38.292Z,97.70
2018-09-06T23:51:06.388Z,98.00
2018-09-06T23:53:34.503Z,97.80
2018-09-06T23:56:02.638Z,97.50
2018-09-06T23:58:30.788Z,97.60
